createdAt,value
2019-04-01T00:00:47.032Z,100.00
2019-04-01T00:03:15.698Z,100.00
2019-04-01T00:05:45.802Z,100.00
2019-04-01T00:08:14.375Z,100.00
2019-04-01T00:10:42.982Z,100.00
2019-04-01T00:13:11.542Z,100.00
2019-04-01T00:15:40.227Z,100.00
2019-04-01T00:18:08.856Z,100.00
2019-04-01T00:20:37.745Z,100.00
2019-04-01T00:23:06.645Z,100.00
2019-04-01T00:25:38.636Z,100.00
2019-04-01T00:28:07.201Z,100.00
2019-04-01T00:30:35.874Z,100.00
2019-04-01T00:33:05.876Z,100.00
2019-04-01T00:35:34.504Z,100.00
2019-04-01T00:38:03.184Z,100.00
2019-04-01T00:40:31.754Z,100.00
2019-04-01T00:43:05.458Z,100.00
2019-04-01T00:45:35.682Z,100.00
2019-04-01T00:48:04.326Z,100.00
2019-04-01T00:50:32.877Z,100.00
2019-04-01T00:53:02.459Z,100.00
2019-04-01T00:55:30.993Z,100.00
2019-04-01T00:57:59.562Z,100.00
2019-04-01T01:00:28.240Z,100.00
2019-04-01T01:02:56.736Z,100.00
2019-04-01T01:05:25.406Z,100.00
2019-04-01T01:07:53.971Z,100.00
2019-04-01T01:10:22.602Z,100.00
2019-04-01T01:12:51.250Z,100.00
2019-04-01T01:15:19.929Z,100.00
2019-04-01T01:17:48.566Z,100.00
2019-04-01T01:20:17.747Z,100.00
2019-04-01T01:22:46.286Z,100.00
2019-04-01T01:25:14.913Z,100.00
2019-04-01T01:27:46.487Z,100.00
2019-04-01T01:30:15.228Z,100.00
2019-04-01T01:32:43.863Z,100.00
2019-04-01T01:35:12.526Z,100.00
2019-04-01T01:37:41.156Z,100.00
2019-04-01T01:40:09.828Z,100.00
2019-04-01T01:42:38.384Z,100.00
2019-04-01T01:45:07.940Z,100.00
2019-04-01T01:47:37.354Z,100.00
2019-04-01T01:50:07.491Z,100.00
2019-04-01T01:52:36.047Z,100.00
2019-04-01T01:55:04.924Z,100.00
2019-04-01T01:57:33.563Z,100.00
2019-04-01T02:00:02.169Z,100.00
2019-04-01T02:02:30.727Z,100.00
2019-04-01T02:04:59.284Z,100.00
2019-04-01T02:07:27.848Z,100.00
2019-04-01T02:09:56.521Z,100.00
2019-04-01T02:12:25.120Z,100.00
2019-04-01T02:14:53.791Z,100.00
2019-04-01T02:17:26.651Z,100.00
2019-04-01T02:19:55.179Z,100.00
2019-04-01T02:22:23.678Z,100.00
2019-04-01T02:24:52.245Z,100.00
2019-04-01T02:27:23.546Z,100.00
2019-04-01T02:29:52.197Z,100.00
2019-04-01T02:32:20.873Z,100.00
2019-04-01T02:34:49.490Z,100.00
2019-04-01T02:37:18.357Z,100.00
2019-04-01T02:39:46.908Z,100.00
2019-04-01T02:42:15.544Z,100.00
2019-04-01T02:44:44.082Z,100.00
2019-04-01T02:47:13.826Z,100.00
2019-04-01T02:49:42.511Z,100.00
2019-04-01T02:52:11.173Z,100.00
2019-04-01T02:54:39.739Z,100.00
2019-04-01T02:57:08.369Z,100.00
2019-04-01T02:59:36.861Z,100.00
2019-04-01T03:02:06.779Z,100.00
2019-04-01T03:04:35.420Z,100.00
2019-04-01T03:07:03.994Z,100.00
2019-04-01T03:09:32.597Z,100.00
2019-04-01T03:12:01.233Z,100.00
2019-04-01T03:14:29.967Z,100.00
2019-04-01T03:16:58.602Z,100.00
2019-04-01T03:19:27.283Z,100.00
2019-04-01T03:21:58.896Z,100.00
2019-04-01T03:24:27.541Z,100.00
2019-04-01T03:26:56.188Z,100.00
2019-04-01T03:29:24.871Z,100.00
2019-04-01T03:31:53.422Z,100.00
2019-04-01T03:34:22.095Z,100.00
2019-04-01T03:36:53.435Z,100.00
2019-04-01T03:39:22.382Z,100.00
2019-04-01T03:41:51.022Z,100.00
2019-04-01T03:44:19.806Z,100.00
2019-04-01T03:46:48.394Z,100.00
2019-04-01T03:49:17.073Z,100.00
2019-04-01T03:51:46.647Z,100.00
2019-04-01T03:54:15.281Z,100.00
2019-04-01T03:56:43.965Z,100.00
2019-04-01T03:59:12.590Z,100.00
2019-04-01T04:01:41.222Z,100.00
2019-04-01T04:04:09.867Z,100.00
2019-04-01T04:06:38.498Z,100.00
2019-04-01T04:09:08.186Z,100.00
2019-04-01T04:11:36.815Z,100.00
2019-04-01T04:14:05.449Z,100.00
2019-04-01T04:16:34.156Z,100.00
2019-04-01T04:19:02.799Z,100.00
2019-04-01T04:21:32.745Z,100.00
2019-04-01T04:24:01.314Z,100.00
2019-04-01T04:26:29.992Z,100.00
2019-04-01T04:29:01.271Z,100.00
2019-04-01T04:31:29.923Z,100.00
2019-04-01T04:33:58.684Z,100.00
2019-04-01T04:36:27.403Z,100.00
2019-04-01T04:38:56.091Z,100.00
2019-04-01T04:41:24.706Z,100.00
2019-04-01T04:43:53.349Z,100.00
2019-04-01T04:46:21.921Z,100.00
2019-04-01T04:48:50.564Z,100.00
2019-04-01T04:51:19.196Z,100.00
2019-04-01T04:53:47.964Z,100.00
2019-04-01T04:56:21.771Z,100.00
2019-04-01T04:58:50.930Z,100.00
2019-04-01T05:01:19.814Z,100.00
2019-04-01T05:03:48.974Z,100.00
2019-04-01T05:06:17.769Z,100.00
2019-04-01T05:08:46.642Z,100.00
2019-04-01T05:11:15.490Z,100.00
2019-04-01T05:13:44.397Z,100.00
2019-04-01T05:16:16.787Z,100.00
2019-04-01T05:18:48.546Z,100.00
2019-04-01T05:21:19.129Z,100.00
2019-04-01T05:23:51.647Z,100.00
2019-04-01T05:26:25.363Z,100.00
2019-04-01T05:28:57.806Z,100.00
2019-04-01T05:31:31.819Z,100.00
2019-04-01T05:34:02.248Z,100.00
2019-04-01T05:36:32.406Z,100.00
2019-04-01T05:39:01.478Z,100.00
2019-04-01T05:41:31.357Z,100.00
2019-04-01T05:44:02.283Z,100.00
2019-04-01T05:46:31.184Z,100.00
2019-04-01T05:49:00.205Z,100.00
2019-04-01T05:51:29.802Z,100.00
2019-04-01T05:53:58.775Z,100.00
2019-04-01T05:56:27.640Z,100.00
2019-04-01T05:58:56.273Z,100.00
2019-04-01T06:01:26.599Z,100.00
2019-04-01T06:03:55.407Z,100.00
2019-04-01T06:06:24.719Z,100.00
2019-04-01T06:08:56.898Z,100.00
2019-04-01T06:11:28.457Z,100.00
2019-04-01T06:14:01.481Z,99.72
2019-04-01T06:16:32.853Z,100.00
2019-04-01T06:19:08.002Z,100.00
2019-04-01T06:21:36.886Z,96.32
2019-04-01T06:24:05.669Z,100.00
2019-04-01T06:26:34.493Z,97.45
2019-04-01T06:29:03.484Z,94.03
2019-04-01T06:31:41.203Z,92.52
2019-04-01T06:34:16.021Z,85.88
2019-04-01T06:36:51.136Z,86.63
2019-04-01T06:39:20.327Z,82.38
2019-04-01T06:41:49.410Z,84.99
2019-04-01T06:44:20.144Z,79.71
2019-04-01T06:46:49.128Z,85.13
2019-04-01T06:49:20.300Z,76.52
2019-04-01T06:51:48.324Z,74.58
2019-04-01T06:54:17.149Z,65.91
2019-04-01T06:56:47.239Z,58.48
2019-04-01T06:59:15.926Z,56.65
2019-04-01T07:01:44.542Z,55.16
2019-04-01T07:04:13.281Z,52.46
2019-04-01T07:06:42.474Z,51.68
2019-04-01T07:09:11.164Z,52.11
2019-04-01T07:11:41.516Z,52.40
2019-04-01T07:14:10.256Z,47.60
2019-04-01T07:16:40.167Z,47.48
2019-04-01T07:19:08.923Z,45.52
2019-04-01T07:21:37.692Z,45.25
2019-04-01T07:24:06.575Z,43.06
2019-04-01T07:26:35.352Z,41.19
2019-04-01T07:29:04.024Z,39.76
2019-04-01T07:31:32.666Z,38.32
2019-04-01T07:34:01.554Z,36.58
2019-04-01T07:36:33.489Z,37.27
2019-04-01T07:39:02.221Z,37.12
2019-04-01T07:41:30.983Z,37.69
2019-04-01T07:43:59.625Z,36.64
2019-04-01T07:46:30.966Z,35.59
2019-04-01T07:48:59.753Z,34.69
2019-04-01T07:51:28.445Z,37.03
2019-04-01T07:53:57.188Z,37.32
2019-04-01T07:56:25.887Z,35.37
2019-04-01T07:58:55.052Z,34.92
2019-04-01T08:01:23.895Z,34.77
2019-04-01T08:03:52.793Z,36.33
2019-04-01T08:06:21.533Z,37.72
2019-04-01T08:08:50.427Z,36.89
2019-04-01T08:11:19.278Z,33.68
2019-04-01T08:13:47.990Z,35.37
2019-04-01T08:16:16.770Z,32.98
2019-04-01T08:18:45.423Z,31.35
2019-04-01T08:21:14.257Z,30.47
2019-04-01T08:23:43.114Z,32.01
2019-04-01T08:26:11.911Z,31.23
2019-04-01T08:28:41.905Z,29.43
2019-04-01T08:31:13.316Z,28.74
2019-04-01T08:33:41.639Z,28.41
2019-04-01T08:36:12.022Z,27.71
2019-04-01T08:38:43.273Z,27.83
2019-04-01T08:41:15.073Z,27.26
2019-04-01T08:43:43.851Z,27.97
2019-04-01T08:46:12.610Z,27.78
2019-04-01T08:48:41.304Z,28.25
2019-04-01T08:51:10.095Z,28.37
2019-04-01T08:53:39.517Z,25.28
2019-04-01T08:56:08.193Z,25.71
2019-04-01T08:58:36.903Z,23.96
2019-04-01T09:01:05.791Z,23.02
2019-04-01T09:03:34.506Z,23.48
2019-04-01T09:08:46.730Z,21.10
2019-04-01T09:11:15.665Z,22.15
2019-04-01T09:13:47.110Z,22.47
2019-04-01T09:16:19.284Z,20.52
2019-04-01T09:18:47.627Z,19.87
2019-04-01T09:21:16.230Z,21.73
2019-04-01T09:23:44.860Z,20.59
2019-04-01T09:26:13.585Z,20.84
2019-04-01T09:28:42.142Z,22.63
2019-04-01T09:31:10.779Z,20.50
2019-04-01T09:33:39.464Z,19.59
2019-04-01T09:36:08.024Z,20.26
2019-04-01T09:38:44.498Z,19.25
2019-04-01T09:41:19.369Z,18.99
2019-04-01T09:43:48.759Z,18.60
2019-04-01T09:46:20.698Z,18.10
2019-04-01T09:48:49.344Z,20.37
2019-04-01T09:51:19.551Z,19.75
2019-04-01T09:53:48.373Z,16.81
2019-04-01T09:56:17.123Z,16.27
2019-04-01T09:58:45.789Z,16.95
2019-04-01T10:01:14.414Z,17.61
2019-04-01T10:03:44.537Z,17.50
2019-04-01T10:06:13.223Z,19.13
2019-04-01T10:08:42.963Z,17.35
2019-04-01T10:11:12.851Z,17.17
2019-04-01T10:13:42.120Z,17.86
2019-04-01T10:16:10.772Z,15.95
2019-04-01T10:18:40.689Z,16.78
2019-04-01T10:21:09.682Z,16.78
2019-04-01T10:23:40.921Z,15.52
2019-04-01T10:26:14.115Z,17.52
2019-04-01T10:28:50.801Z,15.84
2019-04-01T10:31:20.032Z,16.15
2019-04-01T10:33:50.823Z,16.31
2019-04-01T10:36:21.490Z,17.14
2019-04-01T10:38:50.420Z,17.28
2019-04-01T10:41:19.373Z,16.65
2019-04-01T10:43:48.257Z,17.12
2019-04-01T10:46:17.178Z,16.74
2019-04-01T10:48:45.997Z,15.84
2019-04-01T10:51:15.013Z,15.71
2019-04-01T10:53:43.978Z,15.04
2019-04-01T10:56:15.224Z,16.07
2019-04-01T10:58:44.340Z,16.74
2019-04-01T11:01:13.327Z,15.81
2019-04-01T11:03:42.205Z,15.38
2019-04-01T11:06:11.155Z,16.18
2019-04-01T11:08:40.268Z,16.20
2019-04-01T11:11:09.104Z,16.30
2019-04-01T11:13:38.080Z,16.51
2019-04-01T11:16:06.942Z,16.72
2019-04-01T11:18:38.596Z,16.15
2019-04-01T11:21:07.447Z,16.75
2019-04-01T11:23:38.491Z,15.42
2019-04-01T11:26:14.746Z,16.29
2019-04-01T11:28:43.678Z,14.40
2019-04-01T11:31:12.640Z,14.60
2019-04-01T11:33:43.117Z,14.58
2019-04-01T11:36:12.121Z,14.70
2019-04-01T11:38:41.010Z,13.04
2019-04-01T11:41:10.048Z,14.56
2019-04-01T11:43:38.932Z,14.01
2019-04-01T11:46:14.910Z,14.99
2019-04-01T11:48:43.256Z,15.66
2019-04-01T11:51:13.415Z,15.05
2019-04-01T11:53:42.079Z,14.41
2019-04-01T11:56:10.950Z,15.98
2019-04-01T11:58:40.342Z,16.22
2019-04-01T12:01:09.019Z,14.71
2019-04-01T12:03:37.624Z,14.38
2019-04-01T12:06:06.253Z,13.68
2019-04-01T12:08:34.808Z,14.12
2019-04-01T12:11:03.492Z,15.32
2019-04-01T12:13:32.084Z,17.04
2019-04-01T12:16:00.713Z,16.88
2019-04-01T12:18:31.134Z,17.10
2019-04-01T12:20:59.772Z,14.70
2019-04-01T12:23:32.739Z,14.71
2019-04-01T12:26:14.933Z,15.35
2019-04-01T12:28:36.826Z,15.78
2019-04-01T12:31:05.559Z,14.79
2019-04-01T12:33:34.320Z,15.55
2019-04-01T12:36:02.938Z,16.33
2019-04-01T12:38:31.618Z,16.31
2019-04-01T12:41:00.293Z,15.24
2019-04-01T12:43:28.998Z,16.37
2019-04-01T12:45:57.641Z,16.98
2019-04-01T12:48:26.236Z,17.44
2019-04-01T12:50:54.858Z,16.21
2019-04-01T12:53:24.913Z,15.27
2019-04-01T12:55:53.465Z,15.71
2019-04-01T12:58:25.202Z,17.03
2019-04-01T13:00:52.517Z,17.46
2019-04-01T13:03:21.128Z,16.13
2019-04-01T13:06:26.011Z,16.48
2019-04-01T13:09:13.966Z,16.28
2019-04-01T13:12:18.621Z,18.12
2019-04-01T13:15:06.762Z,18.51
2019-04-01T13:18:11.481Z,16.53
2019-04-01T13:20:59.044Z,15.40
2019-04-01T13:24:04.918Z,16.83
2019-04-01T13:26:52.925Z,17.33
2019-04-01T13:29:58.019Z,16.48
2019-04-01T13:32:45.630Z,16.79
2019-04-01T13:35:50.049Z,16.83
2019-04-01T13:38:18.779Z,16.74
2019-04-01T13:40:47.468Z,15.99
2019-04-01T13:43:18.849Z,16.21
2019-04-01T13:45:47.519Z,16.99
2019-04-01T13:48:16.160Z,16.54
2019-04-01T13:50:44.731Z,17.36
2019-04-01T13:53:13.405Z,19.08
2019-04-01T13:55:42.004Z,18.33
2019-04-01T13:58:10.957Z,19.06
2019-04-01T14:00:39.671Z,18.77
2019-04-01T14:03:11.074Z,18.43
2019-04-01T14:05:38.555Z,18.00
2019-04-01T14:08:07.622Z,18.47
2019-04-01T14:10:36.258Z,18.01
2019-04-01T14:13:04.892Z,18.14
2019-04-01T14:15:33.562Z,17.93
2019-04-01T14:18:02.086Z,17.76
2019-04-01T14:20:30.702Z,18.31
2019-04-01T14:22:59.348Z,18.23
2019-04-01T14:25:28.013Z,17.37
2019-04-01T14:27:56.635Z,16.70
2019-04-01T14:30:25.297Z,17.05
2019-04-01T14:32:53.842Z,17.46
2019-04-01T14:35:23.781Z,17.88
2019-04-01T14:37:52.717Z,17.90
2019-04-01T14:40:21.381Z,18.39
2019-04-01T14:42:50.010Z,17.85
2019-04-01T14:45:18.685Z,18.34
2019-04-01T14:47:57.186Z,19.30
2019-04-01T14:50:17.684Z,18.86
2019-04-01T14:52:46.311Z,19.38
2019-04-01T14:55:14.933Z,19.47
2019-04-01T14:57:43.489Z,20.54
2019-04-01T15:00:13.638Z,20.82
2019-04-01T15:02:42.428Z,20.68
2019-04-01T15:05:11.273Z,20.58
2019-04-01T15:07:39.921Z,20.50
2019-04-01T15:10:08.768Z,19.74
2019-04-01T15:12:37.444Z,20.43
2019-04-01T15:15:08.866Z,19.95
2019-04-01T15:17:37.557Z,20.11
2019-04-01T15:20:07.688Z,20.83
2019-04-01T15:22:36.367Z,20.96
2019-04-01T15:25:07.058Z,20.96
2019-04-01T15:27:35.604Z,20.88
2019-04-01T15:30:05.786Z,21.86
2019-04-01T15:32:34.336Z,21.73
2019-04-01T15:35:03.076Z,21.23
2019-04-01T15:37:32.253Z,21.62
2019-04-01T15:40:00.943Z,22.82
2019-04-01T15:42:29.501Z,23.09
2019-04-01T15:44:58.031Z,23.30
2019-04-01T15:47:29.081Z,23.77
2019-04-01T15:49:57.725Z,23.66
2019-04-01T15:52:26.296Z,24.19
2019-04-01T15:54:57.740Z,24.33
2019-04-01T15:57:25.176Z,24.44
2019-04-01T15:59:53.775Z,25.24
2019-04-01T16:02:22.378Z,25.39
2019-04-01T16:04:51.009Z,25.90
2019-04-01T16:07:22.403Z,26.18
2019-04-01T16:09:50.028Z,26.18
2019-04-01T16:12:18.617Z,26.68
2019-04-01T16:14:47.287Z,26.50
2019-04-01T16:17:15.914Z,27.58
2019-04-01T16:19:44.582Z,27.84
2019-04-01T16:22:13.206Z,28.84
2019-04-01T16:24:41.849Z,29.45
2019-04-01T16:27:10.521Z,29.84
2019-04-01T16:29:39.152Z,30.87
2019-04-01T16:32:07.771Z,32.06
2019-04-01T16:34:36.370Z,32.49
2019-04-01T16:37:04.997Z,33.02
2019-04-01T16:39:33.627Z,34.48
2019-04-01T16:42:02.186Z,35.25
2019-04-01T16:44:30.813Z,35.59
2019-04-01T16:46:59.399Z,36.23
2019-04-01T16:49:28.040Z,36.54
2019-04-01T16:52:00.364Z,37.08
2019-04-01T16:54:29.386Z,37.42
2019-04-01T16:56:57.958Z,37.42
2019-04-01T16:59:28.122Z,38.87
2019-04-01T17:01:57.879Z,40.17
2019-04-01T17:04:26.632Z,40.17
2019-04-01T17:06:55.194Z,39.66
2019-04-01T17:09:23.831Z,39.98
2019-04-01T17:11:54.288Z,40.87
2019-04-01T17:14:24.201Z,40.87
2019-04-01T17:16:53.130Z,41.42
2019-04-01T17:19:21.776Z,42.10
2019-04-01T17:21:50.407Z,42.50
2019-04-01T17:24:19.017Z,43.16
2019-04-01T17:27:05.567Z,43.89
2019-04-01T17:29:34.209Z,44.34
2019-04-01T17:32:02.878Z,45.18
2019-04-01T17:34:34.535Z,45.78
2019-04-01T17:37:03.224Z,45.66
2019-04-01T17:39:31.852Z,46.88
2019-04-01T17:42:00.452Z,46.45
2019-04-01T17:44:29.093Z,46.84
2019-04-01T17:46:57.770Z,46.82
2019-04-01T17:49:30.242Z,47.17
2019-04-01T17:52:04.301Z,47.04
2019-04-01T17:54:32.765Z,47.62
2019-04-01T17:57:01.438Z,47.98
2019-04-01T17:59:30.066Z,48.48
2019-04-01T18:01:58.756Z,49.41
2019-04-01T18:04:27.320Z,49.83
2019-04-01T18:06:58.287Z,49.90
2019-04-01T18:09:26.284Z,50.20
2019-04-01T18:11:55.211Z,50.95
2019-04-01T18:14:24.190Z,51.15
2019-04-01T18:16:52.829Z,51.20
2019-04-01T18:19:21.461Z,51.48
2019-04-01T18:21:50.064Z,51.84
2019-04-01T18:24:18.740Z,52.65
2019-04-01T18:26:47.371Z,54.34
2019-04-01T18:29:15.942Z,54.69
2019-04-01T18:31:44.581Z,56.25
2019-04-01T18:34:13.218Z,56.73
2019-04-01T18:36:41.819Z,57.49
2019-04-01T18:39:11.063Z,58.11
2019-04-01T18:41:39.740Z,58.96
2019-04-01T18:44:08.364Z,59.46
2019-04-01T18:46:37.042Z,60.28
2019-04-01T18:49:05.676Z,61.95
2019-04-01T18:51:36.512Z,63.78
2019-04-01T18:54:05.248Z,65.58
2019-04-01T18:56:34.079Z,68.08
2019-04-01T18:59:02.683Z,69.07
2019-04-01T19:01:31.320Z,69.42
2019-04-01T19:03:59.811Z,69.97
2019-04-01T19:06:31.423Z,69.78
2019-04-01T19:09:09.233Z,69.05
2019-04-01T19:11:30.400Z,70.08
2019-04-01T19:14:02.150Z,72.85
2019-04-01T19:16:30.629Z,72.36
2019-04-01T19:18:59.293Z,72.48
2019-04-01T19:21:27.860Z,72.73
2019-04-01T19:23:56.413Z,73.28
2019-04-01T19:26:24.982Z,73.85
2019-04-01T19:28:53.547Z,74.88
2019-04-01T19:31:22.209Z,74.85
2019-04-01T19:33:50.895Z,75.15
2019-04-01T19:36:19.510Z,75.34
2019-04-01T19:38:48.083Z,75.30
2019-04-01T19:41:16.682Z,75.86
2019-04-01T19:43:45.653Z,75.75
2019-04-01T19:46:14.574Z,75.19
2019-04-01T19:48:43.200Z,75.60
2019-04-01T19:51:11.874Z,75.48
2019-04-01T19:53:40.511Z,74.82
2019-04-01T19:56:09.134Z,78.29
2019-04-01T19:58:37.806Z,77.29
2019-04-01T20:01:06.513Z,75.52
2019-04-01T20:03:35.151Z,75.98
2019-04-01T20:06:07.211Z,75.96
2019-04-01T20:08:34.178Z,75.99
2019-04-01T20:11:02.855Z,76.88
2019-04-01T20:13:31.425Z,77.43
2019-04-01T20:15:59.980Z,78.28
2019-04-01T20:18:28.560Z,78.76
2019-04-01T20:20:57.110Z,79.94
2019-04-01T20:23:25.784Z,80.93
2019-04-01T20:25:54.415Z,81.80
2019-04-01T20:28:23.105Z,83.27
2019-04-01T20:30:56.460Z,81.25
2019-04-01T20:33:27.226Z,78.21
2019-04-01T20:35:55.852Z,79.75
2019-04-01T20:38:24.527Z,78.81
2019-04-01T20:40:53.282Z,78.95
2019-04-01T20:43:21.844Z,79.16
2019-04-01T20:45:50.457Z,78.43
2019-04-01T20:48:19.086Z,78.94
2019-04-01T20:50:47.719Z,79.84
2019-04-01T20:53:16.402Z,80.29
2019-04-01T20:55:48.436Z,82.24
2019-04-01T20:58:17.946Z,83.24
2019-04-01T21:00:46.578Z,85.05
2019-04-01T21:03:15.067Z,89.33
2019-04-01T21:05:43.628Z,92.43
2019-04-01T21:08:12.238Z,100.00
2019-04-01T21:10:43.927Z,100.00
2019-04-01T21:13:12.612Z,100.00
2019-04-01T21:15:41.242Z,100.00
2019-04-01T21:18:09.810Z,100.00
2019-04-01T21:20:38.373Z,100.00
2019-04-01T21:23:08.687Z,100.00
2019-04-01T21:25:37.245Z,100.00
2019-04-01T21:28:05.890Z,100.00
2019-04-01T21:30:34.517Z,100.00
2019-04-01T21:33:03.080Z,100.00
2019-04-01T21:35:31.638Z,100.00
2019-04-01T21:38:00.275Z,100.00
2019-04-01T21:40:28.763Z,100.00
2019-04-01T21:42:57.596Z,100.00
2019-04-01T21:45:26.269Z,100.00
2019-04-01T21:47:54.790Z,100.00
2019-04-01T21:50:23.412Z,100.00
2019-04-01T21:52:52.085Z,100.00
2019-04-01T21:55:20.729Z,100.00
2019-04-01T21:57:51.137Z,100.00
2019-04-01T22:00:27.654Z,100.00
2019-04-01T22:02:56.245Z,100.00
2019-04-01T22:05:24.910Z,100.00
2019-04-01T22:07:53.452Z,100.00
2019-04-01T22:10:22.111Z,100.00
2019-04-01T22:12:52.569Z,100.00
2019-04-01T22:15:23.677Z,100.00
2019-04-01T22:17:52.235Z,100.00
2019-04-01T22:20:20.866Z,100.00
2019-04-01T22:22:49.515Z,100.00
2019-04-01T22:25:18.142Z,100.00
2019-04-01T22:27:46.745Z,100.00
2019-04-01T22:30:17.307Z,100.00
2019-04-01T22:32:46.367Z,100.00
2019-04-01T22:35:15.031Z,100.00
2019-04-01T22:37:43.636Z,100.00
2019-04-01T22:40:12.672Z,100.00
2019-04-01T22:42:41.315Z,100.00
2019-04-01T22:45:10.019Z,100.00
2019-04-01T22:47:38.646Z,100.00
2019-04-01T22:50:07.829Z,100.00
2019-04-01T22:52:36.314Z,100.00
2019-04-01T22:55:05.643Z,100.00
2019-04-01T22:57:34.248Z,100.00
2019-04-01T23:00:02.960Z,100.00
2019-04-01T23:02:31.444Z,100.00
2019-04-01T23:04:59.977Z,100.00
2019-04-01T23:07:28.610Z,100.00
2019-04-01T23:09:58.099Z,100.00
2019-04-01T23:12:26.968Z,100.00
2019-04-01T23:14:55.610Z,100.00
2019-04-01T23:17:24.239Z,100.00
2019-04-01T23:19:52.796Z,100.00
2019-04-01T23:22:21.438Z,100.00
2019-04-01T23:24:50.009Z,100.00
2019-04-01T23:27:18.631Z,100.00
2019-04-01T23:29:47.158Z,100.00
2019-04-01T23:32:16.320Z,100.00
2019-04-01T23:34:45.419Z,100.00
2019-04-01T23:37:14.048Z,100.00
2019-04-01T23:39:42.676Z,100.00
2019-04-01T23:42:11.283Z,100.00
2019-04-01T23:44:39.835Z,100.00
2019-04-01T23:47:08.441Z,100.00
2019-04-01T23:49:37.143Z,100.00
2019-04-01T23:52:05.928Z,100.00
2019-04-01T23:54:34.508Z,100.00
2019-04-01T23:57:03.137Z,100.00
2019-04-01T23:59:31.738Z,100.00
